Time;durP1;ratioP1;P1;durP2;ratioP2;P2;SDS_P1;SDS_P2;PMS_P1;PMS_P2;Temp;Humidity;BMP_temperature;BMP_pressure;BME280_temperature;BME280_humidity;BME280_pressure;Samples;Min_cycle;Max_cycle;Signal;HPM_P1;HPM_P2
2022/05/14 00:00:50;;;;;;;7.25;4.40;;;;;;;11.82;74.22;101961.31;4820034;29;20034;-70
2022/05/14 00:03:16;;;;;;;12.95;4.50;;;;;;;11.79;74.19;101963.53;4821202;29;20037;-70
2022/05/14 00:05:42;;;;;;;17.83;6.10;;;;;;;11.75;73.95;101957.69;4822846;29;20030;-70
2022/05/14 00:08:08;;;;;;;13.73;4.45;;;;;;;11.75;74.82;101955.00;4823132;29;20970;-69
2022/05/14 00:13:03;;;;;;;11.48;4.30;;;;;;;11.74;74.99;101965.91;4823292;29;20077;-69
2022/05/14 00:13:21;;;;;;;9.07;4.93;;;;;;;11.67;74.91;101947.03;4823219;29;20045;-69
2022/05/14 00:15:47;;;;;;;17.67;6.03;;;;;;;11.67;75.31;101967.59;4822974;29;20061;-69
2022/05/14 00:18:12;;;;;;;9.75;4.68;;;;;;;11.66;75.07;101961.44;4823265;29;20376;-69
2022/05/14 00:20:39;;;;;;;12.95;5.30;;;;;;;11.66;74.91;101969.44;4822986;29;20038;-69
2022/05/14 00:23:06;;;;;;;11.57;5.70;;;;;;;11.63;74.94;101961.75;4822730;29;20039;-69
2022/05/14 00:25:32;;;;;;;13.00;5.30;;;;;;;11.61;74.90;101956.59;4822622;29;20211;-69
2022/05/14 00:27:58;;;;;;;14.80;4.55;;;;;;;11.58;74.66;101959.63;4822930;29;20070;-69
2022/05/14 00:30:26;;;;;;;11.73;3.92;;;;;;;11.54;74.53;101958.31;4822945;29;20118;-69
2022/05/14 00:32:52;;;;;;;21.08;5.22;;;;;;;11.52;74.31;101956.81;4822782;29;20054;-69
2022/05/14 00:35:18;;;;;;;13.10;5.53;;;;;;;11.49;73.90;101947.31;4822965;29;20038;-69
2022/05/14 00:37:43;;;;;;;9.45;3.53;;;;;;;11.47;73.79;101952.00;4806428;29;20535;-70
2022/05/14 00:40:21;;;;;;;11.10;4.55;;;;;;;11.44;73.56;101955.03;4822670;29;20042;-70
2022/05/14 00:42:46;;;;;;;12.85;4.70;;;;;;;11.43;73.31;101957.88;4822800;29;20069;-69
2022/05/14 00:45:13;;;;;;;8.30;3.88;;;;;;;11.42;73.46;101957.03;4822586;29;20129;-69
2022/05/14 00:47:41;;;;;;;15.48;4.13;;;;;;;11.40;73.36;101959.91;4822537;29;20053;-69
2022/05/14 00:50:33;;;;;;;9.63;4.63;;;;;;;11.40;72.74;101951.06;4822483;29;20038;-69
2022/05/14 00:53:14;;;;;;;9.40;3.83;;;;;;;11.38;73.02;101953.88;4822006;29;20065;-69
2022/05/14 00:55:43;;;;;;;7.93;4.55;;;;;;;11.36;72.93;101947.06;4822247;29;20503;-69
2022/05/14 00:58:14;;;;;;;9.45;4.45;;;;;;;11.34;72.97;101949.06;4822492;29;20348;-69
2022/05/14 01:00:39;;;;;;;15.02;4.75;;;;;;;11.31;72.71;101949.41;4822080;29;20568;-69
2022/05/14 01:03:05;;;;;;;8.73;3.80;;;;;;;11.29;72.49;101952.28;4822272;29;20117;-69
2022/05/14 01:05:31;;;;;;;11.35;4.05;;;;;;;11.26;72.82;101941.09;4822312;29;20036;-69
2022/05/14 01:08:01;;;;;;;12.02;5.05;;;;;;;11.24;72.86;101949.28;4822179;29;20700;-69
2022/05/14 01:10:33;;;;;;;9.63;5.20;;;;;;;11.22;73.35;101947.81;4822198;29;20121;-69
2022/05/14 01:13:01;;;;;;;8.57;3.42;;;;;;;11.17;73.80;101941.13;4822151;29;20109;-69
2022/05/14 01:15:44;;;;;;;10.55;3.65;;;;;;;11.13;73.25;101945.19;4821578;29;20111;-69
2022/05/14 01:18:10;;;;;;;11.05;5.35;;;;;;;11.11;73.88;101938.34;4822146;29;20029;-69
2022/05/14 01:20:37;;;;;;;14.88;3.92;;;;;;;11.09;73.71;101933.16;4822100;29;20042;-69
2022/05/14 01:23:17;;;;;;;8.70;3.90;;;;;;;11.06;73.47;101935.34;4821889;29;20059;-69
2022/05/14 01:28:51;;;;;;;9.25;3.42;;;;;;;11.06;73.53;101944.19;4822253;29;20078;-69
2022/05/14 01:31:16;;;;;;;10.38;4.15;;;;;;;11.03;73.72;101946.34;4822021;29;20038;-69
2022/05/14 01:33:41;;;;;;;10.52;3.75;;;;;;;11.02;73.03;101940.19;4821883;29;20149;-69
2022/05/14 01:36:09;;;;;;;8.95;4.25;;;;;;;10.99;73.32;101940.53;4821833;29;20080;-69
2022/05/14 01:38:35;;;;;;;8.65;3.97;;;;;;;11.02;73.14;101944.69;4805658;29;20376;-69
2022/05/14 01:41:01;;;;;;;8.70;4.38;;;;;;;10.97;73.13;101939.88;4821358;29;20124;-69
2022/05/14 01:43:27;;;;;;;9.27;4.88;;;;;;;10.97;73.25;101942.53;4821534;29;20151;-69
2022/05/14 01:45:53;;;;;;;13.90;5.05;;;;;;;10.96;73.01;101947.06;4821492;29;20026;-69
2022/05/14 01:48:18;;;;;;;7.63;3.20;;;;;;;10.95;72.95;101940.06;4821774;29;20041;-69
2022/05/14 01:50:43;;;;;;;9.43;4.10;;;;;;;10.92;73.38;101942.22;4821813;29;20026;-69
2022/05/14 01:53:09;;;;;;;15.65;4.88;;;;;;;10.92;72.95;101950.22;4821375;29;20038;-70
2022/05/14 01:55:35;;;;;;;6.53;3.47;;;;;;;10.83;73.19;101938.75;4821032;29;20095;-69
2022/05/14 01:58:00;;;;;;;7.05;3.33;;;;;;;10.88;73.32;101952.44;4805075;29;20117;-69
2022/05/14 02:00:26;;;;;;;7.55;3.72;;;;;;;10.85;73.41;101951.94;4821529;29;20517;-69
2022/05/14 02:02:53;;;;;;;8.93;3.72;;;;;;;10.83;73.47;101952.09;4821390;29;20061;-69
2022/05/14 02:05:18;;;;;;;10.60;4.20;;;;;;;10.79;73.57;101945.44;4821572;29;20096;-69
2022/05/14 02:07:44;;;;;;;11.15;3.95;;;;;;;10.77;73.65;101951.94;4821254;29;20070;-69
2022/05/14 02:10:10;;;;;;;12.15;3.47;;;;;;;10.76;73.79;101953.78;4821408;29;20033;-69
2022/05/14 02:12:36;;;;;;;9.48;3.75;;;;;;;10.73;74.19;101952.28;4821429;29;20683;-69
2022/05/14 02:15:02;;;;;;;10.45;3.72;;;;;;;10.70;74.12;101952.63;4821157;29;20042;-69
2022/05/14 02:17:27;;;;;;;6.38;3.72;;;;;;;10.69;74.56;101947.50;4821349;29;20040;-69
2022/05/14 02:19:53;;;;;;;8.68;3.85;;;;;;;10.67;74.52;101946.81;4821322;29;20046;-69
2022/05/14 02:22:18;;;;;;;13.38;4.55;;;;;;;10.66;74.32;101945.13;4821310;29;20062;-69
2022/05/14 02:24:43;;;;;;;12.60;3.95;;;;;;;10.63;73.97;101950.81;4821194;29;20586;-69
2022/05/14 02:27:08;;;;;;;7.45;4.20;;;;;;;10.60;74.16;101951.16;4820331;29;20942;-69
2022/05/14 02:32:19;;;;;;;10.43;3.53;;;;;;;10.53;74.36;101962.50;4821214;29;20133;-69
2022/05/14 02:34:46;;;;;;;6.10;3.08;;;;;;;10.51;74.12;101958.34;4821065;29;20049;-69
2022/05/14 02:37:11;;;;;;;4.63;3.17;;;;;;;10.48;74.02;101961.38;4820883;29;20068;-69
2022/05/14 02:39:37;;;;;;;9.15;4.47;;;;;;;10.44;74.03;101965.34;4821078;29;20042;-69
2022/05/14 02:42:03;;;;;;;10.13;3.88;;;;;;;10.42;74.14;101973.50;4820925;29;20042;-69
2022/05/14 02:44:28;;;;;;;9.52;3.17;;;;;;;10.41;74.03;101968.38;4821001;29;20045;-69
2022/05/14 02:46:53;;;;;;;7.55;3.08;;;;;;;10.40;74.30;101958.69;4820969;29;20030;-69
2022/05/14 02:49:18;;;;;;;9.43;3.50;;;;;;;10.36;73.98;101963.53;4820897;29;20056;-69
2022/05/14 02:51:44;;;;;;;12.82;3.90;;;;;;;10.33;74.18;101963.03;4820765;29;20467;-69
2022/05/14 02:54:09;;;;;;;7.70;3.78;;;;;;;10.30;74.42;101962.38;4820305;29;20474;-70
2022/05/14 02:56:34;;;;;;;11.57;4.30;;;;;;;10.31;74.21;101957.84;4820236;29;20050;-69
2022/05/14 02:59:09;;;;;;;9.80;3.15;;;;;;;10.29;74.51;101955.34;4820570;29;20092;-69
2022/05/14 03:01:37;;;;;;;8.20;3.45;;;;;;;10.30;74.54;101972.19;4820894;29;20057;-69
2022/05/14 03:04:04;;;;;;;8.82;3.58;;;;;;;10.28;74.73;101968.88;4820762;29;20026;-69
2022/05/14 03:06:30;;;;;;;9.00;3.95;;;;;;;10.24;74.61;101962.16;4820771;29;20034;-69
2022/05/14 03:08:56;;;;;;;6.43;3.65;;;;;;;10.23;74.72;101960.50;4820464;29;20065;-69
2022/05/14 03:11:21;;;;;;;9.68;3.25;;;;;;;10.18;75.09;101963.66;4820661;29;20034;-69
2022/05/14 03:13:48;;;;;;;10.50;4.03;;;;;;;10.17;74.87;101963.84;4820733;29;20495;-69
2022/05/14 03:16:14;;;;;;;10.23;4.80;;;;;;;10.17;74.90;101969.19;4820221;29;20038;-69
2022/05/14 03:18:39;;;;;;;10.60;4.60;;;;;;;10.16;74.83;101959.50;4820615;29;20041;-69
2022/05/14 03:21:04;;;;;;;9.77;3.50;;;;;;;10.14;74.29;101961.47;4803933;29;20437;-69
2022/05/14 03:23:30;;;;;;;14.13;4.18;;;;;;;10.14;74.60;101965.00;4820369;29;20150;-69
2022/05/14 03:25:55;;;;;;;9.27;3.42;;;;;;;10.08;74.49;101960.31;4820415;29;20031;-69
2022/05/14 03:28:21;;;;;;;11.82;4.35;;;;;;;10.02;74.65;101950.34;4820400;29;20096;-69
2022/05/14 03:30:47;;;;;;;9.40;3.45;;;;;;;10.04;74.69;101959.84;4820457;29;20035;-69
2022/05/14 03:33:12;;;;;;;6.75;2.72;;;;;;;10.02;74.67;101961.81;4820308;29;20034;-69
2022/05/14 03:35:38;;;;;;;7.43;3.47;;;;;;;10.02;74.95;101961.00;4820436;29;20134;-69
2022/05/14 03:38:03;;;;;;;7.20;3.33;;;;;;;10.00;74.96;101955.00;4821344;29;20891;-69
2022/05/14 03:40:28;;;;;;;10.73;3.70;;;;;;;9.98;75.23;101962.31;4823780;29;20073;-69
2022/05/14 03:42:54;;;;;;;7.70;3.15;;;;;;;9.96;75.08;101959.81;4823766;29;20064;-69
2022/05/14 03:45:19;;;;;;;12.52;3.92;;;;;;;9.93;75.16;101953.97;4807355;29;20046;-69
2022/05/14 03:47:44;;;;;;;8.90;4.38;;;;;;;9.91;75.17;101962.16;4823545;29;20042;-69
2022/05/14 03:50:10;;;;;;;9.95;3.63;;;;;;;9.90;75.31;101949.81;4823514;29;20030;-69
2022/05/14 03:52:35;;;;;;;15.18;5.35;;;;;;;9.80;75.01;101944.66;4823434;29;20390;-69
2022/05/14 03:55:00;;;;;;;12.45;4.45;;;;;;;9.90;75.54;101954.31;4822875;29;20038;-69
2022/05/14 03:57:26;;;;;;;7.72;3.28;;;;;;;9.88;75.15;101957.16;4823361;29;20066;-69
2022/05/14 03:59:51;;;;;;;11.60;4.28;;;;;;;9.86;75.15;101967.13;4823082;29;20034;-69
2022/05/14 04:02:17;;;;;;;9.20;3.92;;;;;;;9.83;75.29;101962.97;4823088;29;20073;-69
2022/05/14 04:04:43;;;;;;;7.75;3.47;;;;;;;9.83;75.85;101957.63;4823285;29;20038;-69
2022/05/14 04:07:10;;;;;;;7.18;3.03;;;;;;;9.82;75.65;101958.66;4823267;29;20065;-69
2022/05/14 04:09:35;;;;;;;7.20;3.97;;;;;;;9.76;75.59;101951.28;4823341;29;20030;-69
2022/05/14 04:12:01;;;;;;;7.63;3.55;;;;;;;9.81;75.73;101958.81;4823202;29;20076;-69
2022/05/14 04:14:26;;;;;;;6.82;3.38;;;;;;;9.79;75.81;101964.28;4823139;29;20563;-69
2022/05/14 04:16:52;;;;;;;9.77;4.53;;;;;;;9.77;75.38;101960.13;4822978;29;20038;-69
2022/05/14 04:19:19;;;;;;;13.27;4.78;;;;;;;9.80;75.55;101959.81;4823067;29;20052;-69
2022/05/14 04:21:44;;;;;;;8.38;3.65;;;;;;;9.81;75.45;101969.47;4823127;29;20410;-69
2022/05/14 04:24:10;;;;;;;8.68;3.83;;;;;;;9.83;75.59;101965.63;4822852;29;20080;-69
2022/05/14 04:26:35;;;;;;;8.40;3.83;;;;;;;9.83;75.52;101970.13;4822598;29;20054;-69
2022/05/14 04:29:01;;;;;;;5.70;3.35;;;;;;;9.84;75.35;101972.63;4822982;29;20027;-69
2022/05/14 04:31:26;;;;;;;9.48;4.20;;;;;;;9.85;75.65;101968.97;4822923;29;20062;-69
2022/05/14 04:33:51;;;;;;;7.53;4.50;;;;;;;9.88;75.62;101979.31;4821608;29;20065;-69
2022/05/14 04:36:18;;;;;;;14.48;4.18;;;;;;;9.88;75.56;101965.97;4822772;29;20042;-69
2022/05/14 04:38:43;;;;;;;8.20;3.83;;;;;;;9.97;75.53;101968.66;4822761;29;20043;-69
2022/05/14 04:41:09;;;;;;;7.97;3.53;;;;;;;10.02;75.38;101972.47;4822692;29;20042;-69
2022/05/14 04:43:34;;;;;;;8.07;3.80;;;;;;;10.23;75.56;101988.00;4822437;29;20121;-69
2022/05/14 04:46:04;;;;;;;8.55;3.92;;;;;;;11.03;73.25;101983.72;4822565;29;20053;-69
2022/05/14 04:48:30;;;;;;;9.98;4.05;;;;;;;12.04;69.63;101982.91;4822605;29;20050;-69
2022/05/14 04:50:55;;;;;;;13.48;4.22;;;;;;;12.58;67.43;101980.13;4821602;29;20042;-69
2022/05/14 04:53:21;;;;;;;9.63;3.45;;;;;;;12.92;66.29;101978.78;4822360;29;20042;-69
2022/05/14 04:55:49;;;;;;;8.30;4.25;;;;;;;12.89;65.77;101979.13;4821949;29;20186;-69
2022/05/14 04:58:14;;;;;;;14.32;4.05;;;;;;;12.67;66.07;101986.22;4822078;29;20038;-69
2022/05/14 05:00:41;;;;;;;10.63;4.63;;;;;;;12.36;66.80;101987.16;4821800;29;20121;-69
2022/05/14 05:03:19;;;;;;;10.02;4.00;;;;;;;12.16;67.94;101989.53;4822137;29;20046;-69
2022/05/14 05:05:46;;;;;;;8.90;4.00;;;;;;;12.02;68.37;101987.59;4822140;29;20030;-69
2022/05/14 05:08:12;;;;;;;10.13;4.00;;;;;;;11.89;69.12;101992.72;4822201;29;20078;-69
2022/05/14 05:10:38;;;;;;;13.90;5.38;;;;;;;11.71;69.67;101987.59;4822056;29;20070;-69
2022/05/14 05:13:03;;;;;;;11.20;5.00;;;;;;;11.68;69.75;101996.81;4805994;29;20117;-69
2022/05/14 05:15:28;;;;;;;11.45;3.75;;;;;;;11.64;70.02;102006.19;4822065;29;20034;-69
2022/05/14 05:17:54;;;;;;;12.23;4.55;;;;;;;11.60;70.85;102004.88;4821959;29;20034;-69
2022/05/14 05:20:20;;;;;;;10.88;3.80;;;;;;;11.57;70.71;102002.53;4821811;29;20069;-70
2022/05/14 05:22:48;;;;;;;11.50;4.55;;;;;;;11.54;71.38;101998.38;4822072;29;20103;-69
2022/05/14 05:25:13;;;;;;;9.93;4.82;;;;;;;11.56;71.23;102006.25;4822399;29;20031;-70
2022/05/14 05:27:39;;;;;;;9.23;4.15;;;;;;;11.59;71.71;102011.22;4822041;29;20078;-69
2022/05/14 05:30:06;;;;;;;7.65;4.68;;;;;;;11.63;71.52;102016.06;4822119;29;20094;-69
2022/05/14 05:32:32;;;;;;;14.02;4.65;;;;;;;11.71;71.70;102020.53;4822056;29;20038;-69
2022/05/14 05:34:57;;;;;;;8.55;4.32;;;;;;;11.73;71.65;102017.66;4821770;29;20094;-69
2022/05/14 05:37:23;;;;;;;14.10;5.03;;;;;;;11.76;72.16;102011.97;4821548;29;20121;-69
2022/05/14 05:39:48;;;;;;;15.35;4.90;;;;;;;11.80;72.16;102018.63;4821790;29;20502;-70
2022/05/14 05:42:13;;;;;;;15.73;5.25;;;;;;;11.81;72.32;102015.78;4821871;29;20095;-69
2022/05/14 05:44:39;;;;;;;13.02;5.75;;;;;;;11.84;72.38;102019.94;4821826;29;20115;-69
2022/05/14 05:47:08;;;;;;;16.40;5.07;;;;;;;11.85;72.36;102022.44;4805284;29;20494;-69
2022/05/14 05:49:36;;;;;;;15.07;6.45;;;;;;;11.88;72.32;102015.13;4821563;29;20049;-69
2022/05/14 05:52:02;;;;;;;9.95;4.80;;;;;;;11.85;72.75;102017.09;4805654;29;20061;-69
2022/05/14 05:57:11;;;;;;;17.25;7.53;;;;;;;11.91;73.13;102028.13;4821398;29;20041;-69
2022/05/14 05:59:36;;;;;;;13.40;6.70;;;;;;;11.95;73.29;102035.63;4821257;29;20050;-69
2022/05/14 06:02:02;;;;;;;17.70;6.57;;;;;;;12.02;73.35;102036.56;4821025;29;20079;-69
2022/05/14 06:04:28;;;;;;;18.42;6.93;;;;;;;12.04;73.40;102033.72;4821275;29;20520;-69
2022/05/14 06:06:54;;;;;;;13.80;6.68;;;;;;;12.13;73.11;102032.66;4821370;29;20117;-69
2022/05/14 06:09:22;;;;;;;20.45;8.63;;;;;;;12.19;73.98;102037.28;4821146;29;20055;-69
2022/05/14 06:11:47;;;;;;;18.67;8.30;;;;;;;12.26;73.91;102040.06;4821037;29;20042;-70
2022/05/14 06:14:13;;;;;;;14.20;6.70;;;;;;;12.34;74.50;102047.22;4821222;29;20098;-70
2022/05/14 06:16:39;;;;;;;14.18;6.80;;;;;;;12.38;73.97;102043.19;4821070;29;20034;-70
2022/05/14 06:19:06;;;;;;;19.23;6.55;;;;;;;12.42;73.35;102037.28;4821197;29;20026;-69
2022/05/14 06:21:32;;;;;;;13.85;6.53;;;;;;;12.43;73.69;102038.94;4821241;29;20071;-69
2022/05/14 06:23:57;;;;;;;20.63;7.57;;;;;;;12.39;74.11;102034.97;4821204;29;20359;-69
2022/05/14 06:26:23;;;;;;;18.13;7.80;;;;;;;12.42;74.43;102036.47;4821213;29;20038;-70
2022/05/14 06:28:49;;;;;;;17.00;8.85;;;;;;;12.47;74.61;102042.94;4821157;29;20444;-70
2022/05/14 06:31:16;;;;;;;18.52;7.15;;;;;;;12.57;74.60;102047.19;4821025;29;20069;-70
2022/05/14 06:33:46;;;;;;;16.67;7.78;;;;;;;12.65;74.85;102047.97;4821076;29;20095;-70
2022/05/14 06:36:12;;;;;;;12.38;6.03;;;;;;;12.75;74.88;102044.19;4820946;29;20039;-70
2022/05/14 06:38:37;;;;;;;21.50;9.05;;;;;;;12.82;74.64;102053.19;4821156;29;20041;-70
2022/05/14 06:41:09;;;;;;;14.02;7.25;;;;;;;12.88;74.52;102047.91;4820930;29;20034;-70
2022/05/14 06:43:34;;;;;;;;;;;;;;;12.99;73.61;102056.50;4821295;29;20042;-70
2022/05/14 06:46:00;;;;;;;24.35;8.20;;;;;;;13.05;74.74;102061.97;4820758;29;19920;-70
2022/05/14 06:48:25;;;;;;;19.10;7.45;;;;;;;13.12;74.63;102059.38;4820682;29;20391;-69
2022/05/14 06:50:51;;;;;;;23.25;8.77;;;;;;;13.19;74.90;102049.59;4820803;29;20073;-70
2022/05/14 06:53:20;;;;;;;14.13;6.95;;;;;;;13.25;75.01;102051.53;4820882;29;20038;-70
2022/05/14 06:55:47;;;;;;;18.73;7.72;;;;;;;13.29;74.66;102052.06;4820770;29;20128;-73
2022/05/14 06:58:16;;;;;;;18.13;8.02;;;;;;;13.35;74.58;102062.03;4820833;29;20049;-69
2022/05/14 07:00:42;;;;;;;18.65;7.45;;;;;;;13.40;74.24;102048.06;4820757;29;20033;-69
2022/05/14 07:08:53;;;;;;;18.48;8.13;;;;;;;13.56;73.97;102039.81;4815507;29;20108;-67
2022/05/14 07:11:20;;;;;;;19.35;7.65;;;;;;;13.62;74.01;102052.47;4820611;29;20506;-68
2022/05/14 07:13:46;;;;;;;13.68;8.15;;;;;;;13.68;73.75;102050.91;4824618;29;20034;-67
2022/05/14 07:16:11;;;;;;;15.10;7.15;;;;;;;13.75;73.62;102052.66;4826148;29;20030;-67
2022/05/14 07:18:36;;;;;;;17.23;7.90;;;;;;;13.80;73.88;102047.53;4826457;29;20699;-68
2022/05/14 07:21:02;;;;;;;20.55;7.38;;;;;;;13.86;73.61;102043.28;4826486;29;20431;-68
2022/05/14 07:23:27;;;;;;;18.83;8.77;;;;;;;14.08;72.97;102048.69;4826410;29;20030;-68
2022/05/14 07:25:52;;;;;;;20.55;9.15;;;;;;;14.34;72.47;102054.31;4826433;29;20034;-68
2022/05/14 07:28:18;;;;;;;17.77;7.18;;;;;;;14.51;72.23;102049.50;4826435;29;20039;-68
2022/05/14 07:30:43;;;;;;;17.92;7.40;;;;;;;14.53;70.97;102047.47;4826442;29;20517;-68
2022/05/14 07:33:09;;;;;;;23.63;11.10;;;;;;;14.54;71.30;102057.22;4826385;29;20070;-68
2022/05/14 07:35:35;;;;;;;17.98;7.65;;;;;;;14.58;71.50;102058.47;4826323;29;20038;-68
2022/05/14 07:38:03;;;;;;;18.00;7.55;;;;;;;14.64;71.80;102051.50;4826185;29;20038;-68
2022/05/14 07:40:33;;;;;;;18.80;7.82;;;;;;;14.65;71.25;102048.63;4826339;29;20034;-68
2022/05/14 07:43:02;;;;;;;24.02;9.35;;;;;;;14.67;71.40;102057.31;4826267;29;20038;-68
2022/05/14 07:45:33;;;;;;;19.10;8.95;;;;;;;14.70;70.95;102061.47;4826081;29;20061;-68
2022/05/14 07:48:01;;;;;;;20.42;9.82;;;;;;;14.78;72.12;102065.88;4826302;29;20796;-68
2022/05/14 07:50:28;;;;;;;20.27;8.98;;;;;;;14.89;71.48;102065.34;4826160;29;20030;-68
2022/05/14 07:52:53;;;;;;;17.63;8.35;;;;;;;15.00;70.46;102063.97;4826206;29;20499;-68
2022/05/14 07:55:19;;;;;;;15.70;8.07;;;;;;;15.11;69.80;102063.41;4825666;29;20052;-68
2022/05/14 07:57:44;;;;;;;19.27;7.32;;;;;;;15.18;69.44;102056.22;4825947;29;20034;-68
2022/05/14 08:00:11;;;;;;;20.65;8.40;;;;;;;15.32;69.78;102060.63;4826098;29;20494;-68
2022/05/14 08:02:36;;;;;;;21.13;8.57;;;;;;;15.78;69.14;102065.44;4825962;29;20042;-68
2022/05/14 08:05:04;;;;;;;18.63;7.85;;;;;;;16.85;65.52;102074.53;4826003;29;20133;-68
2022/05/14 08:07:31;;;;;;;21.60;7.60;;;;;;;18.85;60.31;102067.41;4825741;29;20392;-68
2022/05/14 08:09:57;;;;;;;21.38;8.02;;;;;;;21.11;52.33;102062.44;4825957;29;20051;-68
2022/05/14 08:12:22;;;;;;;19.60;7.82;;;;;;;22.80;47.48;102062.09;4825885;29;20161;-68
2022/05/14 08:14:48;;;;;;;16.98;6.15;;;;;;;24.05;43.93;102060.44;4825583;29;20518;-68
2022/05/14 08:17:13;;;;;;;13.73;6.60;;;;;;;25.32;41.61;102069.84;4825871;29;20070;-68
2022/05/14 08:19:38;;;;;;;18.35;7.65;;;;;;;26.42;39.27;102066.84;4825862;29;20038;-68
2022/05/14 08:24:49;;;;;;;21.27;6.78;;;;;;;27.74;35.02;102064.03;4824319;29;20107;-68
2022/05/14 08:27:14;;;;;;;15.05;6.65;;;;;;;27.81;35.39;102059.09;4823022;29;20038;-68
2022/05/14 08:29:41;;;;;;;19.85;7.38;;;;;;;27.95;34.08;102065.56;4822899;29;20034;-69
2022/05/14 08:32:07;;;;;;;17.88;6.78;;;;;;;28.12;34.32;102059.69;4822809;29;20049;-69
2022/05/14 08:34:33;;;;;;;14.15;6.63;;;;;;;28.49;34.68;102063.81;4822832;29;20030;-69
2022/05/14 08:36:58;;;;;;;12.38;5.55;;;;;;;28.86;32.66;102058.78;4822786;29;20134;-69
2022/05/14 08:39:24;;;;;;;16.58;6.47;;;;;;;28.94;32.47;102058.97;4822763;29;20125;-69
2022/05/14 08:41:52;;;;;;;15.02;7.22;;;;;;;28.81;32.54;102056.91;4822724;29;20904;-69
2022/05/14 08:44:24;;;;;;;15.55;6.40;;;;;;;29.00;33.82;102056.97;4822588;29;20060;-68
2022/05/14 08:46:56;;;;;;;14.80;6.57;;;;;;;29.33;32.96;102065.41;4822690;29;20205;-68
2022/05/14 08:49:27;;;;;;;14.75;6.30;;;;;;;29.30;33.00;102066.84;4822666;29;20022;-68
2022/05/14 08:51:53;;;;;;;17.17;6.77;;;;;;;29.48;31.70;102059.72;4822490;29;20117;-68
2022/05/14 08:54:19;;;;;;;21.02;7.88;;;;;;;28.23;33.41;102062.38;4822632;29;20311;-69
2022/05/14 08:56:51;;;;;;;15.75;7.35;;;;;;;26.32;36.74;102064.09;4822115;29;20038;-69
2022/05/14 08:59:35;;;;;;;18.52;8.18;;;;;;;24.69;39.18;102059.63;4822639;29;20461;-69
2022/05/14 09:02:25;;;;;;;18.67;7.57;;;;;;;23.38;43.98;102060.75;4822360;29;20040;-69
2022/05/14 09:05:07;;;;;;;15.88;6.10;;;;;;;22.57;44.40;102057.66;4822294;29;20041;-69
2022/05/14 09:07:33;;;;;;;17.52;7.25;;;;;;;21.84;45.56;102052.81;4821790;29;20550;-69
2022/05/14 09:09:58;;;;;;;13.00;6.47;;;;;;;21.17;47.71;102052.53;4821625;29;20058;-69
2022/05/14 09:12:29;;;;;;;16.33;7.97;;;;;;;20.75;49.00;102060.78;4822340;29;20172;-68
2022/05/14 09:15:00;;;;;;;19.42;7.82;;;;;;;20.58;50.33;102058.78;4822065;29;20038;-68
2022/05/14 09:17:29;;;;;;;16.67;6.78;;;;;;;20.31;49.83;102057.53;4822191;29;20033;-69
2022/05/14 09:19:55;;;;;;;16.95;8.30;;;;;;;20.08;50.76;102055.56;4822215;29;20505;-68
2022/05/14 09:22:34;;;;;;;17.80;8.30;;;;;;;19.95;52.32;102059.31;4822157;29;20038;-68
2022/05/14 09:25:14;;;;;;;16.38;7.10;;;;;;;19.91;52.26;102063.50;4821938;29;20037;-68
2022/05/14 09:28:08;;;;;;;16.92;7.90;;;;;;;19.87;51.77;102057.72;4822117;29;20493;-68
2022/05/14 09:30:40;;;;;;;14.73;7.38;;;;;;;19.79;51.54;102059.94;4820075;29;20128;-69
2022/05/14 09:33:09;;;;;;;18.50;7.97;;;;;;;19.82;53.79;102060.31;4822038;29;20444;-68
2022/05/14 09:35:35;;;;;;;13.60;6.80;;;;;;;19.84;52.73;102052.78;4820982;29;20034;-68
2022/05/14 09:38:23;;;;;;;19.35;8.20;;;;;;;20.00;53.14;102050.50;4821742;29;20038;-68
2022/05/14 09:40:49;;;;;;;15.05;6.95;;;;;;;20.10;51.66;102054.28;4821769;29;20027;-68
2022/05/14 09:43:14;;;;;;;12.85;6.68;;;;;;;20.17;51.67;102053.34;4821964;29;20109;-68
2022/05/14 09:45:43;;;;;;;22.20;7.47;;;;;;;20.23;52.91;102060.59;4821841;29;20129;-68
2022/05/14 09:48:14;;;;;;;18.80;9.05;;;;;;;20.18;51.91;102049.63;4821978;29;20038;-68
2022/05/14 09:50:40;;;;;;;13.50;6.40;;;;;;;20.30;55.84;102054.00;4821847;29;21014;-69
2022/05/14 09:53:06;;;;;;;16.02;6.78;;;;;;;20.42;50.45;102061.31;4821717;29;20275;-69
2022/05/14 09:55:45;;;;;;;17.08;6.07;;;;;;;20.61;52.96;102056.66;4821332;29;20126;-69
2022/05/14 09:58:20;;;;;;;13.20;6.65;;;;;;;20.78;50.99;102047.59;4821708;29;20034;-69
2022/05/14 10:01:19;;;;;;;15.57;6.82;;;;;;;20.92;50.98;102056.31;4821700;29;20034;-69
2022/05/14 10:03:48;;;;;;;18.67;7.20;;;;;;;20.90;50.47;102047.59;4821318;29;20026;-69
2022/05/14 10:06:34;;;;;;;15.13;7.28;;;;;;;21.05;50.53;102049.81;4821499;29;20030;-68
2022/05/14 10:09:31;;;;;;;15.65;7.70;;;;;;;21.10;50.49;102054.53;4821286;29;20503;-68
2022/05/14 10:12:15;;;;;;;20.20;7.63;;;;;;;21.07;50.48;102046.88;4820672;29;20121;-68
2022/05/14 10:14:55;;;;;;;16.80;6.03;;;;;;;21.07;49.88;102047.72;4821263;29;20053;-68
2022/05/14 10:17:42;;;;;;;14.98;6.43;;;;;;;21.00;50.67;102055.94;4820898;29;20535;-68
2022/05/14 10:20:25;;;;;;;11.88;5.07;;;;;;;21.07;48.68;102055.03;4821313;29;20086;-69
2022/05/14 10:27:00;;;;;;;16.40;6.70;;;;;;;21.37;48.10;102050.22;4750084;29;20129;-68
2022/05/14 10:29:56;;;;;;;16.80;6.60;;;;;;;21.34;48.45;102053.44;4821142;29;20038;-69
2022/05/14 10:32:25;;;;;;;16.73;6.20;;;;;;;21.16;48.92;102043.56;4821206;29;20042;-68
2022/05/14 10:34:53;;;;;;;16.65;6.43;;;;;;;21.04;49.56;102040.06;4821091;29;20034;-68
2022/05/14 10:37:32;;;;;;;13.13;5.07;;;;;;;20.97;47.28;102045.59;4820990;29;20035;-68
2022/05/14 10:40:14;;;;;;;10.65;4.72;;;;;;;21.02;46.71;102042.16;4821057;29;20035;-68
2022/05/14 10:43:02;;;;;;;11.98;4.55;;;;;;;21.12;45.94;102047.81;4821383;29;20049;-68
2022/05/14 10:45:32;;;;;;;13.27;5.57;;;;;;;21.04;47.32;102042.75;4820837;29;20491;-69
2022/05/14 10:48:14;;;;;;;15.13;5.37;;;;;;;21.07;46.87;102044.19;4820408;29;20376;-69
2022/05/14 10:50:40;;;;;;;13.85;5.30;;;;;;;20.95;46.27;102042.28;4820889;29;20049;-69
2022/05/14 10:53:08;;;;;;;11.40;5.30;;;;;;;21.02;46.96;102044.88;4820786;29;20556;-68
2022/05/14 10:55:55;;;;;;;16.00;8.40;;;;;;;21.14;45.86;102045.69;4820631;29;20046;-69
2022/05/14 10:58:35;;;;;;;23.50;7.20;;;;;;;21.31;45.38;102034.91;4820658;29;20030;-69
2022/05/14 11:01:02;;;;;;;12.43;5.25;;;;;;;21.47;44.94;102041.50;4820749;29;20486;-68
2022/05/14 11:03:31;;;;;;;14.50;6.32;;;;;;;21.63;44.10;102039.94;4820633;29;20040;-68
2022/05/14 11:06:02;;;;;;;13.05;5.90;;;;;;;21.76;45.61;102031.50;4820720;29;20034;-68
2022/05/14 11:08:47;;;;;;;11.00;5.78;;;;;;;21.85;45.97;102030.06;4820491;29;20706;-68
2022/05/14 11:11:23;;;;;;;18.35;7.03;;;;;;;21.61;45.22;102042.91;4820162;29;20144;-69
2022/05/14 11:14:04;;;;;;;14.20;7.65;;;;;;;21.69;46.60;102041.66;4820245;29;20116;-68
2022/05/14 11:16:48;;;;;;;15.30;6.75;;;;;;;21.80;46.07;102043.53;4820321;29;20109;-68
2022/05/14 11:19:33;;;;;;;15.32;8.68;;;;;;;21.69;47.00;102035.41;4820501;29;20031;-69
2022/05/14 11:22:01;;;;;;;17.33;6.60;;;;;;;21.61;44.82;102042.91;4820560;29;20049;-69
2022/05/14 11:24:45;;;;;;;11.63;6.15;;;;;;;21.76;45.03;102038.81;4820639;29;20042;-68
2022/05/14 11:27:10;;;;;;;14.55;5.70;;;;;;;21.85;45.54;102038.19;4820462;29;20026;-69
2022/05/14 11:29:56;;;;;;;11.15;5.32;;;;;;;21.69;45.74;102049.00;4820523;29;20609;-68
2022/05/14 11:32:23;;;;;;;15.98;6.15;;;;;;;21.31;44.67;102032.19;4820370;29;20045;-68
2022/05/14 11:34:53;;;;;;;15.57;6.55;;;;;;;21.10;45.76;102046.41;4804289;29;20587;-69
2022/05/14 11:37:36;;;;;;;12.77;6.57;;;;;;;21.01;46.70;102045.91;4820270;29;20030;-68
2022/05/14 11:40:26;;;;;;;13.88;5.82;;;;;;;20.92;46.88;102045.47;4820219;29;20034;-68
2022/05/14 11:43:30;;;;;;;15.35;6.75;;;;;;;21.17;48.26;102050.66;4820606;29;20045;-69
2022/05/14 11:46:33;;;;;;;11.30;6.03;;;;;;;21.38;47.87;102040.25;4745980;30;20098;-69
2022/05/14 11:49:07;;;;;;;12.95;5.15;;;;;;;21.54;45.85;102050.34;4818225;29;20092;-69